sensor_id;sensor_type;location;lat;lon;timestamp;pressure;altitude;pressure_sealevel;temperature;humidity
5609;BME280;2826;51.354;9.588;2023-06-22T00:01:33;98487.22;;;20.65;96.54
5609;BME280;2826;51.354;9.588;2023-06-22T00:04:00;98481.97;;;20.65;96.84
5609;BME280;2826;51.354;9.588;2023-06-22T00:06:27;98475.38;;;20.71;96.78
5609;BME280;2826;51.354;9.588;2023-06-22T00:08:53;98474.06;;;20.76;96.34
5609;BME280;2826;51.354;9.588;2023-06-22T00:11:20;98458.13;;;20.78;96.22
5609;BME280;2826;51.354;9.588;2023-06-22T00:13:47;98461.50;;;20.80;96.27
5609;BME280;2826;51.354;9.588;2023-06-22T00:16:16;98458.63;;;20.83;96.25
5609;BME280;2826;51.354;9.588;2023-06-22T00:18:43;98462.75;;;20.87;95.99
5609;BME280;2826;51.354;9.588;2023-06-22T00:21:12;98465.97;;;20.91;95.99
5609;BME280;2826;51.354;9.588;2023-06-22T00:23:38;98462.47;;;20.91;95.52
5609;BME280;2826;51.354;9.588;2023-06-22T00:26:06;98447.47;;;20.68;94.59
5609;BME280;2826;51.354;9.588;2023-06-22T00:28:33;98465.81;;;20.70;95.08
5609;BME280;2826;51.354;9.588;2023-06-22T00:31:01;98460.75;;;20.67;95.75
5609;BME280;2826;51.354;9.588;2023-06-22T00:33:28;98448.31;;;20.69;96.52
5609;BME280;2826;51.354;9.588;2023-06-22T00:35:55;98449.63;;;20.74;97.11
5609;BME280;2826;51.354;9.588;2023-06-22T00:38:22;98447.47;;;20.80;96.56
5609;BME280;2826;51.354;9.588;2023-06-22T00:40:48;98447.34;;;20.81;95.95
5609;BME280;2826;51.354;9.588;2023-06-22T00:43:15;98445.47;;;20.83;95.96
5609;BME280;2826;51.354;9.588;2023-06-22T00:45:42;98439.44;;;20.81;95.62
5609;BME280;2826;51.354;9.588;2023-06-22T00:48:09;98438.75;;;20.79;95.27
5609;BME280;2826;51.354;9.588;2023-06-22T00:50:37;98443.28;;;20.77;95.66
5609;BME280;2826;51.354;9.588;2023-06-22T00:53:05;98432.84;;;20.75;95.16
5609;BME280;2826;51.354;9.588;2023-06-22T00:55:35;98417.88;;;20.65;95.15
5609;BME280;2826;51.354;9.588;2023-06-22T00:58:04;98417.75;;;20.66;95.63
5609;BME280;2826;51.354;9.588;2023-06-22T01:00:33;98415.00;;;20.68;95.72
5609;BME280;2826;51.354;9.588;2023-06-22T01:03:01;98413.13;;;20.70;95.21
5609;BME280;2826;51.354;9.588;2023-06-22T01:05:28;98404.25;;;20.71;95.72
5609;BME280;2826;51.354;9.588;2023-06-22T01:08:06;98399.44;;;20.76;95.33
5609;BME280;2826;51.354;9.588;2023-06-22T01:10:39;98402.31;;;20.73;94.51
5609;BME280;2826;51.354;9.588;2023-06-22T01:13:11;98397.31;;;20.70;94.44
5609;BME280;2826;51.354;9.588;2023-06-22T01:15:45;98397.06;;;20.61;94.22
5609;BME280;2826;51.354;9.588;2023-06-22T01:18:17;98397.16;;;20.37;93.69
5609;BME280;2826;51.354;9.588;2023-06-22T01:20:45;98394.50;;;20.26;94.24
5609;BME280;2826;51.354;9.588;2023-06-22T01:23:23;98367.44;;;20.01;94.58
5609;BME280;2826;51.354;9.588;2023-06-22T01:25:59;98384.22;;;20.22;95.26
5609;BME280;2826;51.354;9.588;2023-06-22T01:28:43;98390.09;;;20.26;94.95
5609;BME280;2826;51.354;9.588;2023-06-22T01:31:13;98392.59;;;20.28;94.81
5609;BME280;2826;51.354;9.588;2023-06-22T01:33:42;98392.25;;;20.21;95.14
5609;BME280;2826;51.354;9.588;2023-06-22T01:36:09;98396.28;;;20.14;95.68
5609;BME280;2826;51.354;9.588;2023-06-22T01:38:38;98394.84;;;20.09;96.12
5609;BME280;2826;51.354;9.588;2023-06-22T01:41:05;98386.13;;;20.09;96.53
5609;BME280;2826;51.354;9.588;2023-06-22T01:43:32;98335.78;;;19.78;96.47
5609;BME280;2826;51.354;9.588;2023-06-22T01:46:02;98380.25;;;20.17;96.67
5609;BME280;2826;51.354;9.588;2023-06-22T01:48:30;98387.69;;;20.23;97.02
5609;BME280;2826;51.354;9.588;2023-06-22T01:50:57;98394.28;;;20.29;97.23
5609;BME280;2826;51.354;9.588;2023-06-22T01:53:25;98392.72;;;20.26;97.22
5609;BME280;2826;51.354;9.588;2023-06-22T01:55:52;98405.63;;;20.18;97.63
5609;BME280;2826;51.354;9.588;2023-06-22T01:58:21;98408.97;;;20.08;98.57
5609;BME280;2826;51.354;9.588;2023-06-22T02:00:58;98413.09;;;20.00;99.30
5609;BME280;2826;51.354;9.588;2023-06-22T02:03:34;98424.25;;;20.03;99.57
5609;BME280;2826;51.354;9.588;2023-06-22T02:06:04;98411.31;;;20.00;99.81
5609;BME280;2826;51.354;9.588;2023-06-22T02:08:36;98435.91;;;20.23;99.62
5609;BME280;2826;51.354;9.588;2023-06-22T02:11:06;98444.09;;;20.32;99.14
5609;BME280;2826;51.354;9.588;2023-06-22T02:13:36;98448.97;;;20.36;99.04
5609;BME280;2826;51.354;9.588;2023-06-22T02:16:03;98457.72;;;20.37;98.74
5609;BME280;2826;51.354;9.588;2023-06-22T02:18:31;98466.44;;;20.37;98.63
5609;BME280;2826;51.354;9.588;2023-06-22T02:21:01;98469.22;;;20.36;99.00
5609;BME280;2826;51.354;9.588;2023-06-22T02:23:27;98458.19;;;20.31;98.98
5609;BME280;2826;51.354;9.588;2023-06-22T02:25:54;98468.59;;;20.32;99.41
5609;BME280;2826;51.354;9.588;2023-06-22T02:28:23;98475.09;;;20.40;99.37
5609;BME280;2826;51.354;9.588;2023-06-22T02:30:50;98475.34;;;20.48;99.60
5609;BME280;2826;51.354;9.588;2023-06-22T02:33:18;98469.59;;;20.54;99.00
5609;BME280;2826;51.354;9.588;2023-06-22T02:35:47;98473.34;;;20.63;98.49
5609;BME280;2826;51.354;9.588;2023-06-22T02:38:14;98459.56;;;20.59;98.88
5609;BME280;2826;51.354;9.588;2023-06-22T02:40:43;98470.13;;;20.71;98.68
5609;BME280;2826;51.354;9.588;2023-06-22T02:43:10;98475.28;;;20.72;97.94
5609;BME280;2826;51.354;9.588;2023-06-22T02:45:36;98472.25;;;20.77;98.00
5609;BME280;2826;51.354;9.588;2023-06-22T02:48:04;98476.47;;;20.80;97.85
5609;BME280;2826;51.354;9.588;2023-06-22T02:50:31;98469.28;;;20.82;97.96
5609;BME280;2826;51.354;9.588;2023-06-22T02:53:00;98468.91;;;20.86;97.49
5609;BME280;2826;51.354;9.588;2023-06-22T02:55:30;98472.44;;;20.87;97.68
5609;BME280;2826;51.354;9.588;2023-06-22T02:57:58;98481.63;;;20.81;98.38
5609;BME280;2826;51.354;9.588;2023-06-22T03:00:31;98479.72;;;20.83;98.02
5609;BME280;2826;51.354;9.588;2023-06-22T03:02:58;98480.53;;;20.84;97.71
5609;BME280;2826;51.354;9.588;2023-06-22T03:05:25;98473.38;;;20.86;96.77
5609;BME280;2826;51.354;9.588;2023-06-22T03:07:53;98470.84;;;20.84;95.97
5609;BME280;2826;51.354;9.588;2023-06-22T03:10:22;98467.25;;;20.85;96.00
5609;BME280;2826;51.354;9.588;2023-06-22T03:12:48;98471.69;;;20.85;95.63
5609;BME280;2826;51.354;9.588;2023-06-22T03:15:15;98460.75;;;20.78;95.35
5609;BME280;2826;51.354;9.588;2023-06-22T03:17:42;98453.81;;;20.77;95.41
5609;BME280;2826;51.354;9.588;2023-06-22T03:20:10;98456.44;;;20.77;95.07
5609;BME280;2826;51.354;9.588;2023-06-22T03:22:38;98451.06;;;20.79;95.44
5609;BME280;2826;51.354;9.588;2023-06-22T03:25:05;98438.47;;;20.82;95.44
5609;BME280;2826;51.354;9.588;2023-06-22T03:27:38;98441.13;;;20.82;94.50
5609;BME280;2826;51.354;9.588;2023-06-22T03:30:08;98433.34;;;20.81;94.73
5609;BME280;2826;51.354;9.588;2023-06-22T03:32:35;98433.22;;;20.82;94.46
5609;BME280;2826;51.354;9.588;2023-06-22T03:35:05;98432.28;;;20.83;94.39
5609;BME280;2826;51.354;9.588;2023-06-22T03:37:34;98435.41;;;20.88;94.04
5609;BME280;2826;51.354;9.588;2023-06-22T03:40:01;98420.88;;;20.83;94.07
5609;BME280;2826;51.354;9.588;2023-06-22T03:42:31;98425.06;;;20.85;93.42
5609;BME280;2826;51.354;9.588;2023-06-22T03:44:59;98432.00;;;20.86;93.67
5609;BME280;2826;51.354;9.588;2023-06-22T03:47:26;98420.28;;;20.79;93.50
5609;BME280;2826;51.354;9.588;2023-06-22T03:49:53;98437.31;;;20.75;92.90
5609;BME280;2826;51.354;9.588;2023-06-22T03:52:20;98427.22;;;20.57;93.44
5609;BME280;2826;51.354;9.588;2023-06-22T03:54:47;98430.81;;;20.45;94.56
5609;BME280;2826;51.354;9.588;2023-06-22T03:57:13;98432.59;;;20.44;94.87
5609;BME280;2826;51.354;9.588;2023-06-22T03:59:40;98429.13;;;20.55;94.26
5609;BME280;2826;51.354;9.588;2023-06-22T04:02:08;98432.50;;;20.57;94.02
5609;BME280;2826;51.354;9.588;2023-06-22T04:04:35;98430.56;;;20.48;94.86
5609;BME280;2826;51.354;9.588;2023-06-22T04:07:04;98425.66;;;20.32;97.03
5609;BME280;2826;51.354;9.588;2023-06-22T04:09:30;98409.91;;;20.07;98.44
5609;BME280;2826;51.354;9.588;2023-06-22T04:11:57;98417.69;;;20.09;100.00
5609;BME280;2826;51.354;9.588;2023-06-22T04:14:24;98415.06;;;20.09;100.00
5609;BME280;2826;51.354;9.588;2023-06-22T04:16:51;98419.38;;;20.10;100.00
5609;BME280;2826;51.354;9.588;2023-06-22T04:19:19;98426.09;;;20.14;100.00
5609;BME280;2826;51.354;9.588;2023-06-22T04:21:46;98418.91;;;20.16;100.00
5609;BME280;2826;51.354;9.588;2023-06-22T04:24:14;98418.06;;;20.16;100.00
5609;BME280;2826;51.354;9.588;2023-06-22T04:26:40;98421.41;;;20.18;100.00
5609;BME280;2826;51.354;9.588;2023-06-22T04:29:10;98424.06;;;20.18;100.00
5609;BME280;2826;51.354;9.588;2023-06-22T04:31:37;98407.56;;;20.16;100.00
5609;BME280;2826;51.354;9.588;2023-06-22T04:34:04;98416.88;;;20.20;100.00
5609;BME280;2826;51.354;9.588;2023-06-22T04:36:35;98409.09;;;20.18;100.00
5609;BME280;2826;51.354;9.588;2023-06-22T04:39:04;98411.03;;;20.28;100.00
5609;BME280;2826;51.354;9.588;2023-06-22T04:41:31;98421.47;;;20.41;100.00
5609;BME280;2826;51.354;9.588;2023-06-22T04:44:08;98429.72;;;20.47;100.00
5609;BME280;2826;51.354;9.588;2023-06-22T04:46:35;98430.84;;;20.56;100.00
5609;BME280;2826;51.354;9.588;2023-06-22T04:49:05;98427.13;;;20.59;100.00
5609;BME280;2826;51.354;9.588;2023-06-22T04:51:41;98431.53;;;20.58;100.00
5609;BME280;2826;51.354;9.588;2023-06-22T04:54:09;98415.97;;;20.55;100.00
5609;BME280;2826;51.354;9.588;2023-06-22T04:56:36;98423.41;;;20.61;99.42
5609;BME280;2826;51.354;9.588;2023-06-22T04:59:03;98423.16;;;20.65;99.45
5609;BME280;2826;51.354;9.588;2023-06-22T05:01:29;98408.44;;;20.73;99.18
5609;BME280;2826;51.354;9.588;2023-06-22T05:03:57;98419.44;;;20.79;98.86
5609;BME280;2826;51.354;9.588;2023-06-22T05:06:27;98404.72;;;20.76;98.84
5609;BME280;2826;51.354;9.588;2023-06-22T05:08:56;98410.72;;;20.89;98.13
5609;BME280;2826;51.354;9.588;2023-06-22T05:11:24;98413.25;;;20.91;97.33
5609;BME280;2826;51.354;9.588;2023-06-22T05:13:51;98406.03;;;20.93;97.87
5609;BME280;2826;51.354;9.588;2023-06-22T05:16:18;98404.03;;;20.97;97.45
5609;BME280;2826;51.354;9.588;2023-06-22T05:18:51;98404.59;;;21.00;96.58
5609;BME280;2826;51.354;9.588;2023-06-22T05:21:18;98402.31;;;21.07;96.61
5609;BME280;2826;51.354;9.588;2023-06-22T05:23:45;98400.16;;;21.12;96.23
5609;BME280;2826;51.354;9.588;2023-06-22T05:26:13;98381.34;;;21.17;96.57
5609;BME280;2826;51.354;9.588;2023-06-22T05:28:40;98393.88;;;21.36;95.76
5609;BME280;2826;51.354;9.588;2023-06-22T05:31:06;98365.34;;;21.30;95.04
5609;BME280;2826;51.354;9.588;2023-06-22T05:33:33;98390.19;;;21.60;94.58
5609;BME280;2826;51.354;9.588;2023-06-22T05:36:00;98396.03;;;21.75;94.48
5609;BME280;2826;51.354;9.588;2023-06-22T05:38:27;98388.91;;;21.87;93.53
5609;BME280;2826;51.354;9.588;2023-06-22T05:40:53;98358.00;;;21.78;93.92
5609;BME280;2826;51.354;9.588;2023-06-22T05:43:22;98392.44;;;22.19;92.51
5609;BME280;2826;51.354;9.588;2023-06-22T05:45:48;98398.75;;;22.28;91.46
5609;BME280;2826;51.354;9.588;2023-06-22T05:48:15;98391.19;;;22.44;91.00
5609;BME280;2826;51.354;9.588;2023-06-22T05:50:41;98394.50;;;22.58;90.69
5609;BME280;2826;51.354;9.588;2023-06-22T05:53:08;98402.06;;;22.73;89.91
5609;BME280;2826;51.354;9.588;2023-06-22T05:55:35;98400.00;;;22.86;90.01
5609;BME280;2826;51.354;9.588;2023-06-22T05:58:01;98402.56;;;22.97;88.34
5609;BME280;2826;51.354;9.588;2023-06-22T06:00:30;98357.72;;;22.86;87.31
5609;BME280;2826;51.354;9.588;2023-06-22T06:02:57;98389.81;;;23.22;87.53
5609;BME280;2826;51.354;9.588;2023-06-22T06:05:28;98395.13;;;23.32;86.47
5609;BME280;2826;51.354;9.588;2023-06-22T06:07:55;98397.66;;;23.34;85.98
5609;BME280;2826;51.354;9.588;2023-06-22T06:10:22;98402.38;;;23.40;85.83
5609;BME280;2826;51.354;9.588;2023-06-22T06:12:48;98391.66;;;23.42;84.95
5609;BME280;2826;51.354;9.588;2023-06-22T06:15:15;98389.56;;;23.45;85.31
5609;BME280;2826;51.354;9.588;2023-06-22T06:17:50;98398.94;;;23.69;84.92
5609;BME280;2826;51.354;9.588;2023-06-22T06:20:19;98400.75;;;23.79;83.42
5609;BME280;2826;51.354;9.588;2023-06-22T06:22:46;98412.88;;;23.81;82.57
5609;BME280;2826;51.354;9.588;2023-06-22T06:25:13;98411.03;;;23.82;82.35
5609;BME280;2826;51.354;9.588;2023-06-22T06:27:42;98395.00;;;23.83;82.11
5609;BME280;2826;51.354;9.588;2023-06-22T06:30:10;98413.53;;;23.93;82.42
5609;BME280;2826;51.354;9.588;2023-06-22T06:32:37;98401.56;;;23.99;82.27
5609;BME280;2826;51.354;9.588;2023-06-22T06:35:07;98410.22;;;24.11;82.24
5609;BME280;2826;51.354;9.588;2023-06-22T06:37:36;98420.06;;;24.09;79.98
5609;BME280;2826;51.354;9.588;2023-06-22T06:40:03;98420.53;;;24.14;80.75
5609;BME280;2826;51.354;9.588;2023-06-22T06:42:33;98410.75;;;24.14;82.85
5609;BME280;2826;51.354;9.588;2023-06-22T06:45:00;98417.72;;;24.16;82.50
5609;BME280;2826;51.354;9.588;2023-06-22T06:47:27;98413.13;;;24.18;81.67
5609;BME280;2826;51.354;9.588;2023-06-22T06:49:53;98408.50;;;24.30;82.03
5609;BME280;2826;51.354;9.588;2023-06-22T06:52:21;98400.94;;;24.35;81.30
5609;BME280;2826;51.354;9.588;2023-06-22T06:54:48;98407.47;;;24.50;81.51
5609;BME280;2826;51.354;9.588;2023-06-22T06:57:17;98406.66;;;24.40;81.06
5609;BME280;2826;51.354;9.588;2023-06-22T06:59:43;98397.47;;;24.34;82.46
5609;BME280;2826;51.354;9.588;2023-06-22T07:02:09;98390.53;;;24.23;81.84
5609;BME280;2826;51.354;9.588;2023-06-22T07:04:36;98399.84;;;24.08;82.39
5609;BME280;2826;51.354;9.588;2023-06-22T07:07:03;98398.50;;;23.94;84.45
5609;BME280;2826;51.354;9.588;2023-06-22T07:09:32;98397.22;;;23.98;85.45
5609;BME280;2826;51.354;9.588;2023-06-22T07:11:58;98393.88;;;24.06;85.66
5609;BME280;2826;51.354;9.588;2023-06-22T07:14:25;98396.84;;;24.12;84.93
5609;BME280;2826;51.354;9.588;2023-06-22T07:16:52;98389.94;;;24.30;83.24
5609;BME280;2826;51.354;9.588;2023-06-22T07:19:24;98392.00;;;24.46;82.85
5609;BME280;2826;51.354;9.588;2023-06-22T07:21:51;98392.34;;;24.61;81.41
5609;BME280;2826;51.354;9.588;2023-06-22T07:24:17;98384.22;;;24.72;82.40
5609;BME280;2826;51.354;9.588;2023-06-22T07:26:46;98379.75;;;25.01;81.14
5609;BME280;2826;51.354;9.588;2023-06-22T07:29:13;98374.97;;;25.33;81.44
5609;BME280;2826;51.354;9.588;2023-06-22T08:02:26;98381.47;;;27.24;69.94
5609;BME280;2826;51.354;9.588;2023-06-22T08:04:52;98376.69;;;27.36;67.48
5609;BME280;2826;51.354;9.588;2023-06-22T08:07:19;98371.69;;;27.41;69.06
5609;BME280;2826;51.354;9.588;2023-06-22T08:09:46;98352.53;;;27.29;68.82
5609;BME280;2826;51.354;9.588;2023-06-22T08:12:13;98367.03;;;27.43;67.08
5609;BME280;2826;51.354;9.588;2023-06-22T08:14:42;98369.69;;;27.26;66.88
5609;BME280;2826;51.354;9.588;2023-06-22T08:17:08;98369.88;;;27.42;68.13
5609;BME280;2826;51.354;9.588;2023-06-22T08:19:38;98368.56;;;27.62;66.70
5609;BME280;2826;51.354;9.588;2023-06-22T08:22:05;98361.25;;;27.81;65.70
5609;BME280;2826;51.354;9.588;2023-06-22T08:24:32;98355.06;;;27.97;64.61
5609;BME280;2826;51.354;9.588;2023-06-22T08:26:58;98338.41;;;27.95;63.08
5609;BME280;2826;51.354;9.588;2023-06-22T08:29:25;98347.34;;;28.27;62.68
5609;BME280;2826;51.354;9.588;2023-06-22T08:31:51;98345.78;;;28.50;62.52
5609;BME280;2826;51.354;9.588;2023-06-22T08:34:19;98343.00;;;28.43;61.70
5609;BME280;2826;51.354;9.588;2023-06-22T08:36:48;98340.00;;;28.46;62.46
5609;BME280;2826;51.354;9.588;2023-06-22T08:39:18;98315.44;;;28.51;62.65
5609;BME280;2826;51.354;9.588;2023-06-22T08:41:44;98341.66;;;28.79;61.44
5609;BME280;2826;51.354;9.588;2023-06-22T08:44:11;98334.59;;;28.94;61.74
5609;BME280;2826;51.354;9.588;2023-06-22T08:46:38;98340.13;;;28.85;59.38
5609;BME280;2826;51.354;9.588;2023-06-22T08:49:06;98337.59;;;28.60;62.15
5609;BME280;2826;51.354;9.588;2023-06-22T08:51:33;98332.75;;;28.63;63.09
5609;BME280;2826;51.354;9.588;2023-06-22T08:54:01;98335.84;;;28.75;62.77
5609;BME280;2826;51.354;9.588;2023-06-22T08:56:27;98339.41;;;28.99;63.55
5609;BME280;2826;51.354;9.588;2023-06-22T08:58:54;98331.59;;;29.21;62.24
5609;BME280;2826;51.354;9.588;2023-06-22T09:01:21;98336.31;;;29.42;61.65
5609;BME280;2826;51.354;9.588;2023-06-22T09:03:48;98331.03;;;29.57;59.81
5609;BME280;2826;51.354;9.588;2023-06-22T09:06:19;98326.09;;;29.69;59.57
5609;BME280;2826;51.354;9.588;2023-06-22T09:08:46;98310.59;;;29.65;57.94
5609;BME280;2826;51.354;9.588;2023-06-22T09:11:14;98309.69;;;29.72;57.98
5609;BME280;2826;51.354;9.588;2023-06-22T09:13:41;98255.63;;;29.47;59.06
5609;BME280;2826;51.354;9.588;2023-06-22T09:16:07;98295.50;;;29.72;59.31
5609;BME280;2826;51.354;9.588;2023-06-22T09:18:34;98288.66;;;29.54;57.88
5609;BME280;2826;51.354;9.588;2023-06-22T09:21:01;98307.75;;;29.66;58.78
5609;BME280;2826;51.354;9.588;2023-06-22T09:23:27;98299.09;;;29.79;58.52
5609;BME280;2826;51.354;9.588;2023-06-22T09:25:54;98300.03;;;30.02;57.65
5609;BME280;2826;51.354;9.588;2023-06-22T09:28:22;98294.91;;;30.30;57.17
5609;BME280;2826;51.354;9.588;2023-06-22T09:30:49;98306.88;;;30.49;56.66
5609;BME280;2826;51.354;9.588;2023-06-22T09:33:16;98297.50;;;30.75;56.04
5609;BME280;2826;51.354;9.588;2023-06-22T09:35:45;98286.34;;;31.09;54.26
5609;BME280;2826;51.354;9.588;2023-06-22T09:38:11;98293.72;;;31.28;54.70
5609;BME280;2826;51.354;9.588;2023-06-22T09:40:39;98282.59;;;31.47;53.13
5609;BME280;2826;51.354;9.588;2023-06-22T09:43:05;98286.97;;;31.54;52.18
5609;BME280;2826;51.354;9.588;2023-06-22T09:45:33;98255.03;;;31.31;51.71
5609;BME280;2826;51.354;9.588;2023-06-22T09:48:00;98282.91;;;31.65;51.82
5609;BME280;2826;51.354;9.588;2023-06-22T09:50:26;98235.56;;;31.44;50.64
5609;BME280;2826;51.354;9.588;2023-06-22T09:52:54;98266.25;;;31.70;50.01
5609;BME280;2826;51.354;9.588;2023-06-22T09:55:21;98267.50;;;31.74;50.02
5609;BME280;2826;51.354;9.588;2023-06-22T09:57:47;98267.47;;;31.67;50.06
5609;BME280;2826;51.354;9.588;2023-06-22T10:00:15;98259.78;;;31.58;50.19
5609;BME280;2826;51.354;9.588;2023-06-22T10:02:44;98242.97;;;31.20;50.98
5609;BME280;2826;51.354;9.588;2023-06-22T10:05:11;98261.97;;;31.25;50.64
5609;BME280;2826;51.354;9.588;2023-06-22T10:07:37;98254.84;;;31.33;51.58
5609;BME280;2826;51.354;9.588;2023-06-22T10:10:08;98251.88;;;31.49;49.72
5609;BME280;2826;51.354;9.588;2023-06-22T10:12:34;98248.50;;;31.69;50.70
5609;BME280;2826;51.354;9.588;2023-06-22T10:15:02;98250.28;;;31.84;48.87
5609;BME280;2826;51.354;9.588;2023-06-22T10:17:29;98255.28;;;31.93;50.09
5609;BME280;2826;51.354;9.588;2023-06-22T10:19:57;98245.41;;;31.94;49.30
5609;BME280;2826;51.354;9.588;2023-06-22T10:22:23;98244.78;;;31.99;48.68
5609;BME280;2826;51.354;9.588;2023-06-22T10:24:50;98244.16;;;31.97;49.19
5609;BME280;2826;51.354;9.588;2023-06-22T10:27:17;98243.50;;;31.88;49.67
5609;BME280;2826;51.354;9.588;2023-06-22T10:29:44;98242.59;;;31.80;49.59
5609;BME280;2826;51.354;9.588;2023-06-22T10:32:11;98243.56;;;31.66;49.85
5609;BME280;2826;51.354;9.588;2023-06-22T10:34:37;98241.16;;;31.49;49.77
5609;BME280;2826;51.354;9.588;2023-06-22T10:37:05;98230.44;;;31.49;50.01
5609;BME280;2826;51.354;9.588;2023-06-22T10:39:32;98209.28;;;31.61;49.83
5609;BME280;2826;51.354;9.588;2023-06-22T10:41:58;98222.22;;;31.86;48.72
5609;BME280;2826;51.354;9.588;2023-06-22T10:44:25;98222.03;;;31.88;49.54
5609;BME280;2826;51.354;9.588;2023-06-22T10:46:52;98223.84;;;32.16;49.76
5609;BME280;2826;51.354;9.588;2023-06-22T10:49:18;98209.53;;;32.44;49.32
5609;BME280;2826;51.354;9.588;2023-06-22T10:51:45;98216.00;;;32.83;48.76
5609;BME280;2826;51.354;9.588;2023-06-22T10:54:13;98211.06;;;33.07;48.34
5609;BME280;2826;51.354;9.588;2023-06-22T10:56:42;98204.44;;;33.30;48.01
5609;BME280;2826;51.354;9.588;2023-06-22T10:59:09;98188.78;;;33.27;47.53
5609;BME280;2826;51.354;9.588;2023-06-22T11:01:36;98200.31;;;33.34;47.41
5609;BME280;2826;51.354;9.588;2023-06-22T11:04:03;98199.28;;;33.49;47.69
5609;BME280;2826;51.354;9.588;2023-06-22T11:06:30;98201.13;;;33.62;47.47
5609;BME280;2826;51.354;9.588;2023-06-22T11:08:56;98191.78;;;33.78;47.35
5609;BME280;2826;51.354;9.588;2023-06-22T11:11:25;98190.84;;;34.05;46.86
5609;BME280;2826;51.354;9.588;2023-06-22T11:13:52;98179.81;;;34.26;45.73
5609;BME280;2826;51.354;9.588;2023-06-22T11:16:19;98186.03;;;34.27;44.01
5609;BME280;2826;51.354;9.588;2023-06-22T11:18:45;98174.75;;;33.98;43.96
5609;BME280;2826;51.354;9.588;2023-06-22T11:21:12;98174.81;;;33.78;45.14
5609;BME280;2826;51.354;9.588;2023-06-22T11:23:38;98166.22;;;33.35;46.40
5609;BME280;2826;51.354;9.588;2023-06-22T11:26:05;98161.91;;;33.27;46.02
5609;BME280;2826;51.354;9.588;2023-06-22T11:28:33;98158.00;;;33.09;46.23
5609;BME280;2826;51.354;9.588;2023-06-22T11:31:00;98158.97;;;32.95;46.88
5609;BME280;2826;51.354;9.588;2023-06-22T11:33:27;98158.78;;;32.90;47.43
5609;BME280;2826;51.354;9.588;2023-06-22T11:35:53;98146.41;;;33.16;46.76
5609;BME280;2826;51.354;9.588;2023-06-22T11:38:21;98139.50;;;33.54;45.57
5609;BME280;2826;51.354;9.588;2023-06-22T11:40:48;98130.72;;;33.92;44.86
5609;BME280;2826;51.354;9.588;2023-06-22T11:43:15;98117.25;;;33.99;42.61
5609;BME280;2826;51.354;9.588;2023-06-22T11:45:43;98125.69;;;34.09;41.61
5609;BME280;2826;51.354;9.588;2023-06-22T11:48:10;98130.53;;;34.33;41.00
5609;BME280;2826;51.354;9.588;2023-06-22T11:50:36;98123.78;;;34.49;41.13
5609;BME280;2826;51.354;9.588;2023-06-22T11:53:03;98108.19;;;34.58;38.93
5609;BME280;2826;51.354;9.588;2023-06-22T11:55:30;98103.34;;;34.73;39.12
5609;BME280;2826;51.354;9.588;2023-06-22T11:57:57;98100.38;;;34.82;40.39
5609;BME280;2826;51.354;9.588;2023-06-22T12:00:27;98093.78;;;35.22;39.05
5609;BME280;2826;51.354;9.588;2023-06-22T12:02:56;98084.44;;;35.43;37.68
5609;BME280;2826;51.354;9.588;2023-06-22T12:05:22;98079.00;;;35.68;36.88
5609;BME280;2826;51.354;9.588;2023-06-22T12:07:50;98079.81;;;36.00;37.83
5609;BME280;2826;51.354;9.588;2023-06-22T12:10:19;98069.94;;;35.93;36.58
5609;BME280;2826;51.354;9.588;2023-06-22T12:12:46;98065.84;;;36.03;36.54
5609;BME280;2826;51.354;9.588;2023-06-22T12:15:12;98049.63;;;36.21;36.61
5609;BME280;2826;51.354;9.588;2023-06-22T12:17:39;98048.81;;;36.21;36.55
5609;BME280;2826;51.354;9.588;2023-06-22T12:20:09;98047.84;;;36.15;36.24
5609;BME280;2826;51.354;9.588;2023-06-22T12:22:36;98043.75;;;36.25;37.57
5609;BME280;2826;51.354;9.588;2023-06-22T12:25:04;98029.09;;;36.20;36.49
5609;BME280;2826;51.354;9.588;2023-06-22T12:27:31;98038.38;;;36.25;37.24
5609;BME280;2826;51.354;9.588;2023-06-22T12:29:57;98044.00;;;35.92;36.10
5609;BME280;2826;51.354;9.588;2023-06-22T12:32:24;98054.47;;;35.51;36.46
5609;BME280;2826;51.354;9.588;2023-06-22T12:34:50;98049.53;;;35.11;37.63
5609;BME280;2826;51.354;9.588;2023-06-22T12:37:18;98042.31;;;34.60;38.25
5609;BME280;2826;51.354;9.588;2023-06-22T12:39:45;98047.69;;;34.35;39.73
5609;BME280;2826;51.354;9.588;2023-06-22T12:42:12;98041.31;;;34.29;39.93
5609;BME280;2826;51.354;9.588;2023-06-22T12:44:39;98043.09;;;34.42;38.67
5609;BME280;2826;51.354;9.588;2023-06-22T12:47:06;98037.50;;;34.69;39.55
5609;BME280;2826;51.354;9.588;2023-06-22T12:49:33;98030.09;;;34.83;39.27
5609;BME280;2826;51.354;9.588;2023-06-22T12:52:00;98029.25;;;35.08;39.66
5609;BME280;2826;51.354;9.588;2023-06-22T12:54:28;98022.72;;;35.53;39.96
5609;BME280;2826;51.354;9.588;2023-06-22T12:56:55;98019.31;;;36.07;38.69
5609;BME280;2826;51.354;9.588;2023-06-22T12:59:22;98021.84;;;36.33;38.65
5609;BME280;2826;51.354;9.588;2023-06-22T13:01:49;98024.91;;;36.60;38.09
5609;BME280;2826;51.354;9.588;2023-06-22T13:04:15;98016.13;;;36.89;37.80
5609;BME280;2826;51.354;9.588;2023-06-22T13:06:43;98009.97;;;37.06;36.40
5609;BME280;2826;51.354;9.588;2023-06-22T13:09:13;97992.94;;;36.93;36.39
5609;BME280;2826;51.354;9.588;2023-06-22T13:11:42;97986.75;;;36.81;36.39
5609;BME280;2826;51.354;9.588;2023-06-22T13:14:09;97983.34;;;36.85;36.40
5609;BME280;2826;51.354;9.588;2023-06-22T13:16:36;97973.13;;;36.64;36.32
5609;BME280;2826;51.354;9.588;2023-06-22T13:19:02;97960.44;;;36.16;37.89
5609;BME280;2826;51.354;9.588;2023-06-22T13:21:30;97957.66;;;35.80;38.62
5609;BME280;2826;51.354;9.588;2023-06-22T13:23:56;97943.13;;;35.51;38.99
5609;BME280;2826;51.354;9.588;2023-06-22T13:26:23;97945.72;;;35.27;39.71
5609;BME280;2826;51.354;9.588;2023-06-22T13:28:53;97939.75;;;35.06;39.68
5609;BME280;2826;51.354;9.588;2023-06-22T13:31:19;97948.88;;;34.86;41.26
5609;BME280;2826;51.354;9.588;2023-06-22T13:33:47;97949.88;;;34.73;41.25
5609;BME280;2826;51.354;9.588;2023-06-22T13:36:14;97945.38;;;34.86;40.72
5609;BME280;2826;51.354;9.588;2023-06-22T13:38:41;97939.28;;;35.28;41.03
5609;BME280;2826;51.354;9.588;2023-06-22T13:41:07;97936.47;;;35.53;39.86
5609;BME280;2826;51.354;9.588;2023-06-22T13:43:34;97927.47;;;35.29;39.46
5609;BME280;2826;51.354;9.588;2023-06-22T13:46:02;97944.09;;;34.88;39.59
5609;BME280;2826;51.354;9.588;2023-06-22T13:48:29;97946.00;;;34.44;41.01
5609;BME280;2826;51.354;9.588;2023-06-22T13:50:55;97930.72;;;33.86;41.42
5609;BME280;2826;51.354;9.588;2023-06-22T13:53:24;97936.44;;;33.65;42.27
5609;BME280;2826;51.354;9.588;2023-06-22T13:55:51;97922.16;;;33.25;44.40